createdAt,value
2023-01-19T00:26:42.307Z,95.58
2023-01-19T00:54:58.551Z,96.61
2023-01-19T01:23:19.428Z,94.95
2023-01-19T01:51:36.341Z,96.07
2023-01-19T02:19:51.046Z,96.76
2023-01-19T02:48:11.311Z,96.02
2023-01-19T03:16:32.017Z,94.74
2023-01-19T03:44:46.934Z,95.44
2023-01-19T04:13:06.746Z,95.56
2023-01-19T04:41:25.007Z,95.55
2023-01-19T05:09:47.754Z,94.47
2023-01-19T05:38:01.691Z,96.29
2023-01-19T06:06:24.949Z,94.52
2023-01-19T06:34:46.284Z,90.78
2023-01-19T07:03:05.598Z,92.1
2023-01-19T07:31:17.407Z,92.53
2023-01-19T07:59:35.035Z,89.12
2023-01-19T08:27:50.380Z,88.52
2023-01-19T08:56:12.048Z,86.66
2023-01-19T09:24:30.819Z,86.26
2023-01-19T09:52:48.036Z,85.45
2023-01-19T10:21:13.493Z,82.59
2023-01-19T10:49:26.867Z,78.24
2023-01-19T11:17:56.922Z,68.39
2023-01-19T11:46:15.751Z,73.95
2023-01-19T12:14:32.323Z,75.8
2023-01-19T12:42:51.507Z,76.36
2023-01-19T13:11:12.489Z,76.65
2023-01-19T13:39:29.791Z,78.66
2023-01-19T14:07:55.032Z,77.98
2023-01-19T14:36:12.769Z,78.69
2023-01-19T15:04:30.666Z,80.19
2023-01-19T15:33:20.560Z,81.78
2023-01-19T16:02:14.322Z,83.07
2023-01-19T16:30:58.060Z,83.91
2023-01-19T17:00:03.266Z,84.11
2023-01-19T17:29:01.268Z,84.17
2023-01-19T17:58:00.764Z,84.79
2023-01-19T18:26:28.378Z,84.81
2023-01-19T18:55:28.401Z,83.95
2023-01-19T19:24:21.747Z,83.33
2023-01-19T19:53:27.262Z,83.05
2023-01-19T20:22:36.395Z,84.22
2023-01-19T20:51:39.561Z,85.6
2023-01-19T21:20:49.383Z,89.8
2023-01-19T21:49:49.960Z,89.99
2023-01-19T22:18:42.786Z,90.87
2023-01-19T22:47:48.938Z,92.35
2023-01-19T23:16:58.123Z,90.99
2023-01-19T23:46:03.837Z,91.16
